sensor_id;sensor_type;location;lat;lon;timestamp;P1;durP1;ratioP1;P2;durP2;ratioP2
43807;SDS011;29438;50.664;10.098;2023-08-12T00:01:36;2.42;;;1.80;;
43807;SDS011;29438;50.664;10.098;2023-08-12T00:04:01;3.55;;;2.13;;
43807;SDS011;29438;50.664;10.098;2023-08-12T00:06:27;5.95;;;2.10;;
43807;SDS011;29438;50.664;10.098;2023-08-12T00:08:53;4.90;;;2.05;;
43807;SDS011;29438;50.664;10.098;2023-08-12T00:11:19;3.33;;;2.05;;
43807;SDS011;29438;50.664;10.098;2023-08-12T00:13:44;3.33;;;1.95;;
43807;SDS011;29438;50.664;10.098;2023-08-12T00:16:10;4.00;;;1.90;;
43807;SDS011;29438;50.664;10.098;2023-08-12T00:18:36;4.68;;;2.05;;
43807;SDS011;29438;50.664;10.098;2023-08-12T00:21:06;5.65;;;1.85;;
43807;SDS011;29438;50.664;10.098;2023-08-12T00:23:36;3.13;;;1.75;;
43807;SDS011;29438;50.664;10.098;2023-08-12T00:26:03;3.33;;;2.00;;
43807;SDS011;29438;50.664;10.098;2023-08-12T00:28:29;3.45;;;2.25;;
43807;SDS011;29438;50.664;10.098;2023-08-12T00:30:54;3.78;;;2.13;;
43807;SDS011;29438;50.664;10.098;2023-08-12T00:33:20;2.90;;;2.00;;
43807;SDS011;29438;50.664;10.098;2023-08-12T00:35:46;2.95;;;2.10;;
43807;SDS011;29438;50.664;10.098;2023-08-12T00:38:11;3.00;;;1.88;;
43807;SDS011;29438;50.664;10.098;2023-08-12T00:40:37;3.25;;;2.00;;
43807;SDS011;29438;50.664;10.098;2023-08-12T00:43:02;3.25;;;2.25;;
43807;SDS011;29438;50.664;10.098;2023-08-12T00:45:28;3.53;;;1.98;;
43807;SDS011;29438;50.664;10.098;2023-08-12T00:47:54;3.22;;;1.83;;
43807;SDS011;29438;50.664;10.098;2023-08-12T00:50:20;3.17;;;2.17;;
43807;SDS011;29438;50.664;10.098;2023-08-12T00:52:46;3.13;;;1.90;;
43807;SDS011;29438;50.664;10.098;2023-08-12T00:55:12;4.30;;;2.05;;
43807;SDS011;29438;50.664;10.098;2023-08-12T00:57:38;5.13;;;2.30;;
43807;SDS011;29438;50.664;10.098;2023-08-12T01:00:04;3.83;;;2.00;;
43807;SDS011;29438;50.664;10.098;2023-08-12T01:02:30;3.85;;;2.25;;
43807;SDS011;29438;50.664;10.098;2023-08-12T01:04:56;4.88;;;2.53;;
43807;SDS011;29438;50.664;10.098;2023-08-12T01:07:23;3.47;;;2.25;;
43807;SDS011;29438;50.664;10.098;2023-08-12T01:09:48;3.10;;;2.15;;
43807;SDS011;29438;50.664;10.098;2023-08-12T01:12:24;4.18;;;2.50;;
43807;SDS011;29438;50.664;10.098;2023-08-12T01:15:07;3.58;;;2.47;;
43807;SDS011;29438;50.664;10.098;2023-08-12T01:17:36;4.13;;;2.42;;
43807;SDS011;29438;50.664;10.098;2023-08-12T01:20:05;3.58;;;2.28;;
43807;SDS011;29438;50.664;10.098;2023-08-12T01:22:40;4.65;;;2.35;;
43807;SDS011;29438;50.664;10.098;2023-08-12T01:25:06;4.97;;;2.38;;
43807;SDS011;29438;50.664;10.098;2023-08-12T01:27:34;4.32;;;2.30;;
43807;SDS011;29438;50.664;10.098;2023-08-12T01:30:01;4.43;;;2.30;;
43807;SDS011;29438;50.664;10.098;2023-08-12T01:35:13;5.38;;;2.83;;
43807;SDS011;29438;50.664;10.098;2023-08-12T01:37:42;3.10;;;2.08;;
43807;SDS011;29438;50.664;10.098;2023-08-12T01:40:08;6.65;;;2.60;;
43807;SDS011;29438;50.664;10.098;2023-08-12T01:42:35;3.50;;;2.40;;
43807;SDS011;29438;50.664;10.098;2023-08-12T01:45:03;6.47;;;2.20;;
43807;SDS011;29438;50.664;10.098;2023-08-12T01:47:29;4.63;;;2.53;;
43807;SDS011;29438;50.664;10.098;2023-08-12T01:49:55;6.05;;;2.50;;
43807;SDS011;29438;50.664;10.098;2023-08-12T01:52:21;3.42;;;2.05;;
43807;SDS011;29438;50.664;10.098;2023-08-12T01:54:47;3.92;;;2.65;;
43807;SDS011;29438;50.664;10.098;2023-08-12T01:57:12;3.67;;;2.25;;
43807;SDS011;29438;50.664;10.098;2023-08-12T01:59:38;4.00;;;2.17;;
43807;SDS011;29438;50.664;10.098;2023-08-12T02:02:04;3.30;;;2.10;;
43807;SDS011;29438;50.664;10.098;2023-08-12T02:04:30;4.90;;;2.40;;
43807;SDS011;29438;50.664;10.098;2023-08-12T02:06:56;3.20;;;2.35;;
43807;SDS011;29438;50.664;10.098;2023-08-12T02:09:23;3.85;;;2.22;;
43807;SDS011;29438;50.664;10.098;2023-08-12T02:11:49;4.07;;;2.53;;
43807;SDS011;29438;50.664;10.098;2023-08-12T02:14:15;3.30;;;2.17;;
43807;SDS011;29438;50.664;10.098;2023-08-12T02:16:40;3.30;;;2.22;;
43807;SDS011;29438;50.664;10.098;2023-08-12T02:19:06;4.53;;;2.20;;
43807;SDS011;29438;50.664;10.098;2023-08-12T02:21:32;2.70;;;2.03;;
43807;SDS011;29438;50.664;10.098;2023-08-12T02:23:57;4.28;;;2.25;;
43807;SDS011;29438;50.664;10.098;2023-08-12T02:26:23;4.40;;;2.30;;
43807;SDS011;29438;50.664;10.098;2023-08-12T02:28:48;4.50;;;2.58;;
43807;SDS011;29438;50.664;10.098;2023-08-12T02:31:15;5.00;;;2.30;;
43807;SDS011;29438;50.664;10.098;2023-08-12T02:33:40;7.65;;;2.45;;
43807;SDS011;29438;50.664;10.098;2023-08-12T02:36:06;3.97;;;2.28;;
43807;SDS011;29438;50.664;10.098;2023-08-12T02:38:32;3.92;;;2.28;;
43807;SDS011;29438;50.664;10.098;2023-08-12T02:40:57;3.92;;;2.50;;
43807;SDS011;29438;50.664;10.098;2023-08-12T02:43:23;3.55;;;2.33;;
43807;SDS011;29438;50.664;10.098;2023-08-12T02:45:48;3.70;;;2.45;;
43807;SDS011;29438;50.664;10.098;2023-08-12T02:48:14;3.67;;;2.42;;
43807;SDS011;29438;50.664;10.098;2023-08-12T02:50:39;3.92;;;2.58;;
43807;SDS011;29438;50.664;10.098;2023-08-12T02:53:05;3.55;;;2.20;;
43807;SDS011;29438;50.664;10.098;2023-08-12T02:55:31;4.32;;;2.20;;
43807;SDS011;29438;50.664;10.098;2023-08-12T02:57:57;4.72;;;2.70;;
43807;SDS011;29438;50.664;10.098;2023-08-12T03:00:23;5.82;;;2.38;;
43807;SDS011;29438;50.664;10.098;2023-08-12T03:02:49;3.53;;;2.33;;
43807;SDS011;29438;50.664;10.098;2023-08-12T03:05:14;3.28;;;2.28;;
43807;SDS011;29438;50.664;10.098;2023-08-12T03:07:40;4.18;;;2.47;;
43807;SDS011;29438;50.664;10.098;2023-08-12T03:10:06;4.07;;;2.47;;
43807;SDS011;29438;50.664;10.098;2023-08-12T03:12:32;3.22;;;2.25;;
43807;SDS011;29438;50.664;10.098;2023-08-12T03:14:58;4.20;;;2.60;;
43807;SDS011;29438;50.664;10.098;2023-08-12T03:17:23;3.38;;;2.33;;
43807;SDS011;29438;50.664;10.098;2023-08-12T03:19:49;4.45;;;2.55;;
43807;SDS011;29438;50.664;10.098;2023-08-12T03:22:15;3.65;;;2.30;;
43807;SDS011;29438;50.664;10.098;2023-08-12T03:24:40;4.07;;;2.50;;
43807;SDS011;29438;50.664;10.098;2023-08-12T03:27:06;4.22;;;2.50;;
43807;SDS011;29438;50.664;10.098;2023-08-12T03:29:31;5.63;;;2.67;;
43807;SDS011;29438;50.664;10.098;2023-08-12T03:31:57;4.85;;;2.53;;
43807;SDS011;29438;50.664;10.098;2023-08-12T03:34:22;7.05;;;2.80;;
43807;SDS011;29438;50.664;10.098;2023-08-12T03:36:48;3.42;;;2.67;;
43807;SDS011;29438;50.664;10.098;2023-08-12T03:39:15;4.18;;;2.70;;
43807;SDS011;29438;50.664;10.098;2023-08-12T03:41:41;3.95;;;2.40;;
43807;SDS011;29438;50.664;10.098;2023-08-12T03:44:06;3.42;;;2.45;;
43807;SDS011;29438;50.664;10.098;2023-08-12T03:46:32;3.42;;;2.50;;
43807;SDS011;29438;50.664;10.098;2023-08-12T03:48:57;5.32;;;2.45;;
43807;SDS011;29438;50.664;10.098;2023-08-12T03:51:23;4.20;;;2.50;;
43807;SDS011;29438;50.664;10.098;2023-08-12T03:53:48;4.57;;;2.70;;
43807;SDS011;29438;50.664;10.098;2023-08-12T03:56:14;3.67;;;2.35;;
43807;SDS011;29438;50.664;10.098;2023-08-12T03:58:42;3.35;;;2.45;;
43807;SDS011;29438;50.664;10.098;2023-08-12T04:01:07;4.50;;;2.55;;
43807;SDS011;29438;50.664;10.098;2023-08-12T04:03:33;4.70;;;2.75;;
43807;SDS011;29438;50.664;10.098;2023-08-12T04:05:58;3.45;;;2.53;;
43807;SDS011;29438;50.664;10.098;2023-08-12T04:08:24;4.80;;;2.50;;
43807;SDS011;29438;50.664;10.098;2023-08-12T04:10:50;4.00;;;2.55;;
43807;SDS011;29438;50.664;10.098;2023-08-12T04:13:16;3.90;;;2.70;;
43807;SDS011;29438;50.664;10.098;2023-08-12T04:15:42;4.13;;;2.38;;
43807;SDS011;29438;50.664;10.098;2023-08-12T04:18:13;5.65;;;2.80;;
43807;SDS011;29438;50.664;10.098;2023-08-12T04:20:38;3.72;;;2.70;;
43807;SDS011;29438;50.664;10.098;2023-08-12T04:23:04;4.20;;;2.70;;
43807;SDS011;29438;50.664;10.098;2023-08-12T04:25:30;4.43;;;2.72;;
43807;SDS011;29438;50.664;10.098;2023-08-12T04:27:55;4.97;;;3.05;;
43807;SDS011;29438;50.664;10.098;2023-08-12T04:30:21;5.70;;;3.10;;
43807;SDS011;29438;50.664;10.098;2023-08-12T04:32:46;7.32;;;2.88;;
43807;SDS011;29438;50.664;10.098;2023-08-12T04:35:12;6.65;;;2.90;;
43807;SDS011;29438;50.664;10.098;2023-08-12T04:37:37;8.02;;;2.97;;
43807;SDS011;29438;50.664;10.098;2023-08-12T04:40:03;7.45;;;3.30;;
43807;SDS011;29438;50.664;10.098;2023-08-12T04:42:30;5.10;;;2.92;;
43807;SDS011;29438;50.664;10.098;2023-08-12T04:44:55;6.65;;;3.70;;
43807;SDS011;29438;50.664;10.098;2023-08-12T04:47:21;5.18;;;3.35;;
43807;SDS011;29438;50.664;10.098;2023-08-12T04:49:46;4.60;;;3.47;;
43807;SDS011;29438;50.664;10.098;2023-08-12T04:52:12;6.28;;;3.50;;
43807;SDS011;29438;50.664;10.098;2023-08-12T04:54:37;6.90;;;3.67;;
43807;SDS011;29438;50.664;10.098;2023-08-12T04:57:03;6.97;;;3.67;;
43807;SDS011;29438;50.664;10.098;2023-08-12T04:59:28;4.55;;;3.58;;
43807;SDS011;29438;50.664;10.098;2023-08-12T05:01:54;7.45;;;4.22;;
43807;SDS011;29438;50.664;10.098;2023-08-12T05:04:20;6.50;;;4.00;;
43807;SDS011;29438;50.664;10.098;2023-08-12T05:06:45;7.32;;;4.13;;
43807;SDS011;29438;50.664;10.098;2023-08-12T05:09:11;6.03;;;4.10;;
43807;SDS011;29438;50.664;10.098;2023-08-12T05:11:36;6.47;;;4.05;;
43807;SDS011;29438;50.664;10.098;2023-08-12T05:14:02;6.75;;;4.45;;
43807;SDS011;29438;50.664;10.098;2023-08-12T05:16:27;5.20;;;3.83;;
43807;SDS011;29438;50.664;10.098;2023-08-12T05:18:54;5.85;;;3.90;;
43807;SDS011;29438;50.664;10.098;2023-08-12T05:21:19;5.90;;;4.13;;
43807;SDS011;29438;50.664;10.098;2023-08-12T05:23:45;7.13;;;4.38;;
43807;SDS011;29438;50.664;10.098;2023-08-12T05:26:11;5.80;;;4.20;;
43807;SDS011;29438;50.664;10.098;2023-08-12T05:28:36;6.50;;;4.30;;
43807;SDS011;29438;50.664;10.098;2023-08-12T05:31:02;6.10;;;4.40;;
43807;SDS011;29438;50.664;10.098;2023-08-12T05:33:27;5.90;;;4.25;;
43807;SDS011;29438;50.664;10.098;2023-08-12T05:35:53;6.40;;;4.22;;
43807;SDS011;29438;50.664;10.098;2023-08-12T05:38:19;5.63;;;3.75;;
43807;SDS011;29438;50.664;10.098;2023-08-12T05:40:44;5.05;;;4.00;;
43807;SDS011;29438;50.664;10.098;2023-08-12T05:43:10;7.05;;;3.72;;
43807;SDS011;29438;50.664;10.098;2023-08-12T05:45:35;5.78;;;4.15;;
43807;SDS011;29438;50.664;10.098;2023-08-12T05:48:01;7.32;;;4.05;;
43807;SDS011;29438;50.664;10.098;2023-08-12T05:50:26;5.75;;;3.45;;
43807;SDS011;29438;50.664;10.098;2023-08-12T05:52:52;4.63;;;3.58;;
43807;SDS011;29438;50.664;10.098;2023-08-12T05:55:17;6.47;;;3.78;;
43807;SDS011;29438;50.664;10.098;2023-08-12T05:57:43;5.32;;;3.70;;
43807;SDS011;29438;50.664;10.098;2023-08-12T06:00:08;4.63;;;3.70;;
43807;SDS011;29438;50.664;10.098;2023-08-12T06:02:34;5.50;;;3.95;;
43807;SDS011;29438;50.664;10.098;2023-08-12T06:05:01;4.93;;;3.50;;
43807;SDS011;29438;50.664;10.098;2023-08-12T06:07:27;5.68;;;3.75;;
43807;SDS011;29438;50.664;10.098;2023-08-12T06:09:52;5.18;;;3.90;;
43807;SDS011;29438;50.664;10.098;2023-08-12T06:12:18;6.22;;;4.18;;
43807;SDS011;29438;50.664;10.098;2023-08-12T06:14:44;5.95;;;4.38;;
43807;SDS011;29438;50.664;10.098;2023-08-12T06:17:09;5.50;;;4.00;;
43807;SDS011;29438;50.664;10.098;2023-08-12T06:19:35;6.78;;;4.35;;
43807;SDS011;29438;50.664;10.098;2023-08-12T06:22:00;5.82;;;4.05;;
43807;SDS011;29438;50.664;10.098;2023-08-12T06:24:26;6.05;;;4.35;;
43807;SDS011;29438;50.664;10.098;2023-08-12T06:26:51;5.63;;;4.45;;
43807;SDS011;29438;50.664;10.098;2023-08-12T06:29:17;6.35;;;4.82;;
43807;SDS011;29438;50.664;10.098;2023-08-12T06:31:43;5.82;;;4.43;;
43807;SDS011;29438;50.664;10.098;2023-08-12T06:34:08;7.15;;;4.80;;
43807;SDS011;29438;50.664;10.098;2023-08-12T06:36:34;6.88;;;4.88;;
43807;SDS011;29438;50.664;10.098;2023-08-12T06:38:59;7.57;;;4.88;;
43807;SDS011;29438;50.664;10.098;2023-08-12T06:41:25;10.07;;;4.25;;
43807;SDS011;29438;50.664;10.098;2023-08-12T06:43:50;6.30;;;4.43;;
43807;SDS011;29438;50.664;10.098;2023-08-12T06:46:16;6.63;;;4.60;;
43807;SDS011;29438;50.664;10.098;2023-08-12T06:48:42;6.30;;;4.70;;
43807;SDS011;29438;50.664;10.098;2023-08-12T06:51:07;6.53;;;4.75;;
43807;SDS011;29438;50.664;10.098;2023-08-12T06:53:35;6.60;;;5.07;;
43807;SDS011;29438;50.664;10.098;2023-08-12T06:56:02;7.28;;;5.35;;
43807;SDS011;29438;50.664;10.098;2023-08-12T06:58:27;6.38;;;5.05;;
43807;SDS011;29438;50.664;10.098;2023-08-12T07:00:53;6.45;;;5.28;;
43807;SDS011;29438;50.664;10.098;2023-08-12T07:03:19;8.13;;;5.45;;
43807;SDS011;29438;50.664;10.098;2023-08-12T07:05:44;7.25;;;5.68;;
43807;SDS011;29438;50.664;10.098;2023-08-12T07:08:10;7.45;;;5.47;;
43807;SDS011;29438;50.664;10.098;2023-08-12T07:10:39;7.05;;;5.65;;
43807;SDS011;29438;50.664;10.098;2023-08-12T07:13:05;8.68;;;5.45;;
43807;SDS011;29438;50.664;10.098;2023-08-12T07:15:31;7.53;;;5.60;;
43807;SDS011;29438;50.664;10.098;2023-08-12T07:17:56;7.45;;;5.22;;
43807;SDS011;29438;50.664;10.098;2023-08-12T07:20:22;6.80;;;5.10;;
43807;SDS011;29438;50.664;10.098;2023-08-12T07:22:49;6.22;;;4.97;;
43807;SDS011;29438;50.664;10.098;2023-08-12T07:25:15;8.95;;;4.60;;
43807;SDS011;29438;50.664;10.098;2023-08-12T07:27:40;6.93;;;5.28;;
43807;SDS011;29438;50.664;10.098;2023-08-12T07:30:06;6.13;;;4.65;;
43807;SDS011;29438;50.664;10.098;2023-08-12T07:32:32;6.32;;;4.35;;
43807;SDS011;29438;50.664;10.098;2023-08-12T07:34:58;5.50;;;4.32;;
43807;SDS011;29438;50.664;10.098;2023-08-12T07:37:24;7.57;;;4.93;;
43807;SDS011;29438;50.664;10.098;2023-08-12T07:39:50;6.28;;;4.65;;
43807;SDS011;29438;50.664;10.098;2023-08-12T07:42:16;7.22;;;4.22;;
43807;SDS011;29438;50.664;10.098;2023-08-12T07:44:42;6.82;;;4.40;;
43807;SDS011;29438;50.664;10.098;2023-08-12T07:47:08;6.03;;;4.22;;
43807;SDS011;29438;50.664;10.098;2023-08-12T07:49:35;7.07;;;4.32;;
43807;SDS011;29438;50.664;10.098;2023-08-12T07:52:00;4.68;;;3.97;;
43807;SDS011;29438;50.664;10.098;2023-08-12T07:54:26;6.00;;;3.78;;
43807;SDS011;29438;50.664;10.098;2023-08-12T07:56:52;4.85;;;3.58;;
43807;SDS011;29438;50.664;10.098;2023-08-12T07:59:19;4.00;;;3.42;;
43807;SDS011;29438;50.664;10.098;2023-08-12T08:01:45;4.80;;;3.42;;
43807;SDS011;29438;50.664;10.098;2023-08-12T08:04:10;6.05;;;3.50;;
43807;SDS011;29438;50.664;10.098;2023-08-12T08:06:36;4.55;;;3.47;;
43807;SDS011;29438;50.664;10.098;2023-08-12T08:09:01;5.90;;;3.80;;
43807;SDS011;29438;50.664;10.098;2023-08-12T08:11:28;5.22;;;3.80;;
43807;SDS011;29438;50.664;10.098;2023-08-12T08:13:55;5.53;;;4.00;;
43807;SDS011;29438;50.664;10.098;2023-08-12T08:16:20;7.63;;;4.10;;
43807;SDS011;29438;50.664;10.098;2023-08-12T08:18:46;5.72;;;4.10;;
43807;SDS011;29438;50.664;10.098;2023-08-12T08:21:12;6.55;;;4.20;;
43807;SDS011;29438;50.664;10.098;2023-08-12T08:23:40;12.32;;;6.05;;
43807;SDS011;29438;50.664;10.098;2023-08-12T08:26:06;5.97;;;4.35;;
43807;SDS011;29438;50.664;10.098;2023-08-12T08:28:32;7.35;;;4.38;;
43807;SDS011;29438;50.664;10.098;2023-08-12T08:30:58;5.47;;;3.80;;
43807;SDS011;29438;50.664;10.098;2023-08-12T08:33:24;4.30;;;3.30;;
43807;SDS011;29438;50.664;10.098;2023-08-12T08:35:50;6.15;;;3.60;;
43807;SDS011;29438;50.664;10.098;2023-08-12T08:38:16;4.70;;;3.10;;
43807;SDS011;29438;50.664;10.098;2023-08-12T08:40:42;4.25;;;2.90;;
43807;SDS011;29438;50.664;10.098;2023-08-12T08:43:08;3.97;;;3.05;;
43807;SDS011;29438;50.664;10.098;2023-08-12T08:45:34;4.50;;;3.30;;
43807;SDS011;29438;50.664;10.098;2023-08-12T08:48:01;4.55;;;3.08;;
43807;SDS011;29438;50.664;10.098;2023-08-12T08:50:30;4.18;;;3.20;;
43807;SDS011;29438;50.664;10.098;2023-08-12T08:52:56;4.03;;;2.95;;
43807;SDS011;29438;50.664;10.098;2023-08-12T08:55:22;3.55;;;2.90;;
43807;SDS011;29438;50.664;10.098;2023-08-12T08:57:48;4.05;;;2.97;;
43807;SDS011;29438;50.664;10.098;2023-08-12T09:00:15;4.28;;;3.38;;
43807;SDS011;29438;50.664;10.098;2023-08-12T09:02:41;4.32;;;3.20;;
43807;SDS011;29438;50.664;10.098;2023-08-12T09:05:09;4.30;;;2.75;;
43807;SDS011;29438;50.664;10.098;2023-08-12T09:07:37;4.53;;;2.90;;
43807;SDS011;29438;50.664;10.098;2023-08-12T09:10:04;3.33;;;2.97;;
43807;SDS011;29438;50.664;10.098;2023-08-12T09:12:30;4.13;;;3.10;;
43807;SDS011;29438;50.664;10.098;2023-08-12T09:14:57;4.15;;;3.13;;
43807;SDS011;29438;50.664;10.098;2023-08-12T09:17:23;4.80;;;3.20;;
43807;SDS011;29438;50.664;10.098;2023-08-12T09:19:49;5.15;;;3.38;;
43807;SDS011;29438;50.664;10.098;2023-08-12T09:22:15;4.85;;;3.40;;
43807;SDS011;29438;50.664;10.098;2023-08-12T09:24:42;4.43;;;3.47;;
43807;SDS011;29438;50.664;10.098;2023-08-12T09:27:08;3.83;;;3.40;;
43807;SDS011;29438;50.664;10.098;2023-08-12T09:29:34;4.38;;;3.58;;
43807;SDS011;29438;50.664;10.098;2023-08-12T09:32:13;3.83;;;2.78;;
43807;SDS011;29438;50.664;10.098;2023-08-12T09:34:46;5.57;;;2.95;;
43807;SDS011;29438;50.664;10.098;2023-08-12T09:37:13;6.40;;;3.67;;
43807;SDS011;29438;50.664;10.098;2023-08-12T09:39:39;4.40;;;3.33;;
43807;SDS011;29438;50.664;10.098;2023-08-12T09:42:05;3.53;;;2.17;;
43807;SDS011;29438;50.664;10.098;2023-08-12T09:44:34;5.00;;;2.85;;
43807;SDS011;29438;50.664;10.098;2023-08-12T09:47:00;2.65;;;1.80;;
43807;SDS011;29438;50.664;10.098;2023-08-12T09:49:26;2.92;;;1.92;;
43807;SDS011;29438;50.664;10.098;2023-08-12T09:51:52;4.30;;;1.67;;
43807;SDS011;29438;50.664;10.098;2023-08-12T09:54:18;5.93;;;1.73;;
43807;SDS011;29438;50.664;10.098;2023-08-12T09:56:46;3.42;;;2.00;;
43807;SDS011;29438;50.664;10.098;2023-08-12T09:59:14;1.92;;;1.38;;
43807;SDS011;29438;50.664;10.098;2023-08-12T10:01:44;2.63;;;1.70;;
43807;SDS011;29438;50.664;10.098;2023-08-12T10:04:11;4.50;;;1.98;;
43807;SDS011;29438;50.664;10.098;2023-08-12T10:06:40;2.60;;;1.85;;
43807;SDS011;29438;50.664;10.098;2023-08-12T10:09:05;3.20;;;1.70;;
43807;SDS011;29438;50.664;10.098;2023-08-12T10:11:33;3.70;;;2.00;;
43807;SDS011;29438;50.664;10.098;2023-08-12T10:14:00;2.60;;;1.73;;
43807;SDS011;29438;50.664;10.098;2023-08-12T10:16:26;3.88;;;1.75;;
43807;SDS011;29438;50.664;10.098;2023-08-12T10:18:55;2.67;;;1.30;;
43807;SDS011;29438;50.664;10.098;2023-08-12T10:21:22;3.33;;;1.70;;
43807;SDS011;29438;50.664;10.098;2023-08-12T10:23:50;2.45;;;1.60;;
43807;SDS011;29438;50.664;10.098;2023-08-12T10:26:17;3.53;;;1.70;;
43807;SDS011;29438;50.664;10.098;2023-08-12T10:28:43;4.18;;;1.70;;
43807;SDS011;29438;50.664;10.098;2023-08-12T10:31:08;2.70;;;1.50;;
43807;SDS011;29438;50.664;10.098;2023-08-12T10:33:37;2.65;;;1.35;;
43807;SDS011;29438;50.664;10.098;2023-08-12T10:36:03;2.95;;;1.55;;
43807;SDS011;29438;50.664;10.098;2023-08-12T10:38:30;2.72;;;1.70;;
43807;SDS011;29438;50.664;10.098;2023-08-12T10:41:30;2.83;;;1.65;;
43807;SDS011;29438;50.664;10.098;2023-08-12T10:43:59;2.45;;;1.40;;
43807;SDS011;29438;50.664;10.098;2023-08-12T10:46:33;2.72;;;1.80;;
43807;SDS011;29438;50.664;10.098;2023-08-12T10:49:07;3.25;;;1.70;;
43807;SDS011;29438;50.664;10.098;2023-08-12T10:51:49;2.00;;;1.17;;
43807;SDS011;29438;50.664;10.098;2023-08-12T10:54:26;2.33;;;0.82;;
43807;SDS011;29438;50.664;10.098;2023-08-12T11:02:17;2.22;;;1.38;;
43807;SDS011;29438;50.664;10.098;2023-08-12T11:07:28;3.33;;;1.60;;
43807;SDS011;29438;50.664;10.098;2023-08-12T11:10:22;3.28;;;1.50;;
43807;SDS011;29438;50.664;10.098;2023-08-12T11:15:31;2.58;;;1.35;;
43807;SDS011;29438;50.664;10.098;2023-08-12T11:20:30;2.33;;;1.10;;
43807;SDS011;29438;50.664;10.098;2023-08-12T11:22:56;3.70;;;1.20;;
43807;SDS011;29438;50.664;10.098;2023-08-12T11:25:23;2.53;;;1.40;;
43807;SDS011;29438;50.664;10.098;2023-08-12T11:27:49;2.47;;;1.10;;
43807;SDS011;29438;50.664;10.098;2023-08-12T11:30:15;1.70;;;1.13;;
43807;SDS011;29438;50.664;10.098;2023-08-12T11:32:44;2.60;;;1.20;;
43807;SDS011;29438;50.664;10.098;2023-08-12T11:35:11;3.25;;;1.30;;
43807;SDS011;29438;50.664;10.098;2023-08-12T11:37:37;2.08;;;1.20;;
43807;SDS011;29438;50.664;10.098;2023-08-12T11:40:05;2.42;;;1.33;;
43807;SDS011;29438;50.664;10.098;2023-08-12T11:42:33;1.95;;;1.20;;
43807;SDS011;29438;50.664;10.098;2023-08-12T11:45:04;2.38;;;1.30;;
43807;SDS011;29438;50.664;10.098;2023-08-12T11:47:30;2.63;;;1.20;;
43807;SDS011;29438;50.664;10.098;2023-08-12T11:49:56;2.40;;;1.42;;
43807;SDS011;29438;50.664;10.098;2023-08-12T11:52:21;2.83;;;1.52;;
43807;SDS011;29438;50.664;10.098;2023-08-12T11:54:48;2.53;;;1.40;;
43807;SDS011;29438;50.664;10.098;2023-08-12T11:57:15;2.38;;;1.48;;
43807;SDS011;29438;50.664;10.098;2023-08-12T11:59:40;2.65;;;1.70;;
43807;SDS011;29438;50.664;10.098;2023-08-12T12:02:06;2.85;;;1.58;;
43807;SDS011;29438;50.664;10.098;2023-08-12T12:04:32;2.75;;;1.48;;
43807;SDS011;29438;50.664;10.098;2023-08-12T12:06:58;2.67;;;1.50;;
43807;SDS011;29438;50.664;10.098;2023-08-12T12:09:24;2.65;;;1.52;;
43807;SDS011;29438;50.664;10.098;2023-08-12T12:11:53;2.72;;;1.67;;
43807;SDS011;29438;50.664;10.098;2023-08-12T12:14:20;2.50;;;1.60;;
43807;SDS011;29438;50.664;10.098;2023-08-12T12:16:46;3.75;;;1.85;;
43807;SDS011;29438;50.664;10.098;2023-08-12T12:19:22;3.00;;;1.80;;
43807;SDS011;29438;50.664;10.098;2023-08-12T12:21:49;3.05;;;2.10;;
43807;SDS011;29438;50.664;10.098;2023-08-12T12:24:16;4.57;;;1.90;;
43807;SDS011;29438;50.664;10.098;2023-08-12T12:26:43;2.60;;;1.38;;
43807;SDS011;29438;50.664;10.098;2023-08-12T12:29:10;3.53;;;1.60;;
43807;SDS011;29438;50.664;10.098;2023-08-12T12:31:39;2.33;;;1.60;;
43807;SDS011;29438;50.664;10.098;2023-08-12T12:34:07;2.60;;;1.67;;
43807;SDS011;29438;50.664;10.098;2023-08-12T12:36:35;2.60;;;1.35;;
43807;SDS011;29438;50.664;10.098;2023-08-12T12:39:05;4.20;;;1.63;;
43807;SDS011;29438;50.664;10.098;2023-08-12T12:41:31;4.32;;;2.13;;
43807;SDS011;29438;50.664;10.098;2023-08-12T12:43:59;3.33;;;1.80;;
43807;SDS011;29438;50.664;10.098;2023-08-12T12:46:26;4.75;;;1.90;;
43807;SDS011;29438;50.664;10.098;2023-08-12T12:48:51;4.05;;;1.50;;
43807;SDS011;29438;50.664;10.098;2023-08-12T12:51:17;3.67;;;1.95;;
43807;SDS011;29438;50.664;10.098;2023-08-12T12:53:42;2.78;;;1.92;;
43807;SDS011;29438;50.664;10.098;2023-08-12T12:56:08;4.85;;;1.80;;
43807;SDS011;29438;50.664;10.098;2023-08-12T12:58:34;3.13;;;1.80;;
43807;SDS011;29438;50.664;10.098;2023-08-12T13:01:00;2.88;;;1.77;;
43807;SDS011;29438;50.664;10.098;2023-08-12T13:03:26;2.72;;;2.00;;
43807;SDS011;29438;50.664;10.098;2023-08-12T13:05:52;4.72;;;2.10;;
43807;SDS011;29438;50.664;10.098;2023-08-12T13:08:19;3.40;;;2.03;;
43807;SDS011;29438;50.664;10.098;2023-08-12T13:10:44;5.18;;;2.10;;
43807;SDS011;29438;50.664;10.098;2023-08-12T13:13:10;2.83;;;2.25;;
43807;SDS011;29438;50.664;10.098;2023-08-12T13:15:37;3.35;;;2.30;;
43807;SDS011;29438;50.664;10.098;2023-08-12T13:18:03;3.75;;;2.58;;
43807;SDS011;29438;50.664;10.098;2023-08-12T13:20:28;4.30;;;2.60;;
43807;SDS011;29438;50.664;10.098;2023-08-12T13:22:54;6.38;;;2.78;;
43807;SDS011;29438;50.664;10.098;2023-08-12T13:25:19;5.65;;;3.38;;
43807;SDS011;29438;50.664;10.098;2023-08-12T13:27:45;5.53;;;2.75;;
43807;SDS011;29438;50.664;10.098;2023-08-12T13:30:11;4.38;;;2.70;;
43807;SDS011;29438;50.664;10.098;2023-08-12T13:32:37;4.60;;;2.90;;
43807;SDS011;29438;50.664;10.098;2023-08-12T13:35:03;4.72;;;3.03;;
43807;SDS011;29438;50.664;10.098;2023-08-12T13:37:29;4.22;;;2.80;;
43807;SDS011;29438;50.664;10.098;2023-08-12T13:39:54;4.03;;;2.78;;
43807;SDS011;29438;50.664;10.098;2023-08-12T13:42:20;3.38;;;2.60;;
43807;SDS011;29438;50.664;10.098;2023-08-12T13:44:45;3.88;;;2.15;;
43807;SDS011;29438;50.664;10.098;2023-08-12T13:47:11;2.90;;;2.15;;
43807;SDS011;29438;50.664;10.098;2023-08-12T13:49:36;4.63;;;2.30;;
43807;SDS011;29438;50.664;10.098;2023-08-12T13:52:02;4.93;;;2.28;;
43807;SDS011;29438;50.664;10.098;2023-08-12T13:54:28;3.67;;;1.90;;
43807;SDS011;29438;50.664;10.098;2023-08-12T13:56:53;5.13;;;2.40;;
43807;SDS011;29438;50.664;10.098;2023-08-12T13:59:19;4.20;;;2.35;;
43807;SDS011;29438;50.664;10.098;2023-08-12T14:01:45;3.63;;;2.08;;
43807;SDS011;29438;50.664;10.098;2023-08-12T14:04:10;4.25;;;2.10;;
43807;SDS011;29438;50.664;10.098;2023-08-12T14:06:36;3.50;;;2.10;;
43807;SDS011;29438;50.664;10.098;2023-08-12T14:09:02;4.60;;;1.95;;
43807;SDS011;29438;50.664;10.098;2023-08-12T14:11:27;4.18;;;1.98;;
43807;SDS011;29438;50.664;10.098;2023-08-12T14:13:53;3.13;;;2.13;;
43807;SDS011;29438;50.664;10.098;2023-08-12T14:16:19;3.20;;;1.75;;
43807;SDS011;29438;50.664;10.098;2023-08-12T14:18:44;3.35;;;1.70;;
43807;SDS011;29438;50.664;10.098;2023-08-12T14:21:10;4.78;;;2.03;;
43807;SDS011;29438;50.664;10.098;2023-08-12T14:23:35;3.33;;;1.67;;
43807;SDS011;29438;50.664;10.098;2023-08-12T14:26:01;2.90;;;1.80;;
43807;SDS011;29438;50.664;10.098;2023-08-12T14:28:27;2.88;;;1.55;;
43807;SDS011;29438;50.664;10.098;2023-08-12T14:30:53;3.00;;;1.10;;
43807;SDS011;29438;50.664;10.098;2023-08-12T14:33:21;2.58;;;1.02;;
43807;SDS011;29438;50.664;10.098;2023-08-12T14:35:49;3.40;;;1.42;;
43807;SDS011;29438;50.664;10.098;2023-08-12T14:38:16;2.28;;;1.00;;
43807;SDS011;29438;50.664;10.098;2023-08-12T14:40:42;2.90;;;1.00;;
43807;SDS011;29438;50.664;10.098;2023-08-12T14:43:11;2.08;;;0.98;;
43807;SDS011;29438;50.664;10.098;2023-08-12T14:45:37;2.00;;;1.00;;